createdAt,value
2019-03-21T00:00:43.372Z,33.07
2019-03-21T00:03:14.126Z,34.63
2019-03-21T00:05:44.911Z,29.47
2019-03-21T00:08:15.035Z,30.40
2019-03-21T00:11:33.850Z,30.40
2019-03-21T00:14:12.194Z,35.07
2019-03-21T00:16:43.005Z,30.43
2019-03-21T00:19:13.715Z,32.03
2019-03-21T00:21:44.475Z,32.17
2019-03-21T00:24:15.217Z,34.43
2019-03-21T00:26:46.006Z,37.50
2019-03-21T00:29:17.396Z,35.50
2019-03-21T00:31:48.234Z,32.80
2019-03-21T00:34:19.215Z,30.70
2019-03-21T00:36:49.910Z,37.33
2019-03-21T00:39:20.752Z,32.40
2019-03-21T00:41:51.448Z,35.67
2019-03-21T00:44:22.278Z,33.83
2019-03-21T00:46:53.329Z,36.00
2019-03-21T00:49:26.957Z,33.47
2019-03-21T00:51:57.815Z,37.67
2019-03-21T00:54:28.787Z,37.93
2019-03-21T00:56:59.601Z,33.83
2019-03-21T00:59:30.335Z,38.47
2019-03-21T01:02:01.087Z,35.20
2019-03-21T01:04:34.639Z,35.77
2019-03-21T01:07:06.400Z,34.73
2019-03-21T01:09:37.645Z,39.23
2019-03-21T01:12:09.738Z,40.90
2019-03-21T01:14:40.756Z,33.97
2019-03-21T01:17:11.587Z,36.03
2019-03-21T01:19:42.398Z,40.60
2019-03-21T01:22:13.181Z,41.87
2019-03-21T01:24:43.894Z,45.53
2019-03-21T01:27:14.600Z,40.27
2019-03-21T01:29:45.464Z,37.73
2019-03-21T01:32:16.216Z,39.27
2019-03-21T01:34:46.917Z,46.43
2019-03-21T01:37:17.664Z,38.87
2019-03-21T01:39:48.511Z,41.17
2019-03-21T01:42:19.272Z,41.77
2019-03-21T01:44:49.989Z,40.43
2019-03-21T01:47:20.700Z,40.03
2019-03-21T01:49:52.193Z,39.10
2019-03-21T01:52:23.696Z,40.43
2019-03-21T01:54:55.194Z,43.43
2019-03-21T01:57:27.036Z,38.53
2019-03-21T01:59:58.177Z,40.97
2019-03-21T02:02:28.903Z,49.20
2019-03-21T02:04:59.827Z,40.13
2019-03-21T02:07:30.528Z,37.10
2019-03-21T02:10:01.673Z,40.10
2019-03-21T02:12:32.640Z,39.40
2019-03-21T02:15:03.405Z,39.27
2019-03-21T02:17:34.554Z,40.70
2019-03-21T02:20:05.684Z,40.63
2019-03-21T02:22:36.451Z,36.87
2019-03-21T02:25:11.456Z,44.27
2019-03-21T02:27:42.172Z,34.93
2019-03-21T02:30:17.167Z,41.63
2019-03-21T02:32:48.752Z,40.07
2019-03-21T02:35:19.465Z,43.37
2019-03-21T02:37:50.186Z,41.57
2019-03-21T02:40:22.445Z,38.90
2019-03-21T02:42:53.401Z,38.37
2019-03-21T02:45:24.346Z,39.03
2019-03-21T02:47:55.054Z,40.17
2019-03-21T02:50:29.858Z,35.30
2019-03-21T02:53:00.756Z,41.50
2019-03-21T02:55:31.481Z,44.43
2019-03-21T02:58:02.543Z,36.77
2019-03-21T03:00:34.131Z,38.83
2019-03-21T03:03:04.993Z,40.07
2019-03-21T03:05:36.208Z,47.40
2019-03-21T03:08:07.260Z,42.30
2019-03-21T03:10:47.953Z,40.67
2019-03-21T03:13:18.644Z,41.53
2019-03-21T03:15:49.480Z,38.47
2019-03-21T03:18:20.474Z,39.83
2019-03-21T03:20:51.348Z,41.07
2019-03-21T03:23:22.152Z,41.83
2019-03-21T03:25:52.854Z,41.97
2019-03-21T03:28:25.705Z,40.27
2019-03-21T03:30:57.850Z,40.67
2019-03-21T03:33:28.600Z,40.30
2019-03-21T03:35:59.519Z,42.23
2019-03-21T03:38:30.668Z,43.67
2019-03-21T03:41:02.584Z,44.47
2019-03-21T03:43:33.737Z,37.57
2019-03-21T03:46:05.423Z,41.27
2019-03-21T03:48:36.129Z,41.97
2019-03-21T03:51:06.895Z,42.07
2019-03-21T03:53:37.605Z,37.50
2019-03-21T03:56:09.300Z,41.57
2019-03-21T03:58:42.312Z,35.77
2019-03-21T04:01:13.815Z,42.43
2019-03-21T04:03:45.294Z,37.50
2019-03-21T04:06:16.066Z,38.17
2019-03-21T04:08:46.872Z,39.23
2019-03-21T04:11:18.407Z,34.47
2019-03-21T04:13:49.823Z,40.93
2019-03-21T04:16:20.984Z,36.23
2019-03-21T04:18:52.196Z,37.87
2019-03-21T04:21:23.403Z,41.27
2019-03-21T04:23:54.139Z,34.63
2019-03-21T04:26:28.708Z,35.43
2019-03-21T04:29:00.046Z,38.90
2019-03-21T04:31:30.837Z,39.07
2019-03-21T04:34:03.562Z,34.50
2019-03-21T04:36:34.271Z,38.37
2019-03-21T04:39:07.400Z,35.33
2019-03-21T04:41:39.005Z,43.17
2019-03-21T04:44:09.719Z,35.60
2019-03-21T04:46:40.500Z,35.27
2019-03-21T04:49:11.614Z,37.17
2019-03-21T04:51:42.586Z,34.57
2019-03-21T04:54:13.584Z,35.37
2019-03-21T04:56:44.358Z,39.60
2019-03-21T04:59:15.323Z,35.70
2019-03-21T05:01:46.076Z,40.13
2019-03-21T05:04:16.792Z,38.33
2019-03-21T05:06:48.013Z,36.73
2019-03-21T05:09:20.743Z,43.83
2019-03-21T05:11:51.548Z,41.87
2019-03-21T05:14:22.562Z,37.17
2019-03-21T05:16:53.346Z,39.83
2019-03-21T05:19:24.070Z,37.20
2019-03-21T05:21:54.927Z,37.07
2019-03-21T05:24:26.190Z,38.53
2019-03-21T05:26:56.910Z,38.90
2019-03-21T05:29:27.890Z,36.87
2019-03-21T05:31:58.625Z,35.83
2019-03-21T05:34:29.570Z,40.60
2019-03-21T05:37:00.843Z,37.50
2019-03-21T05:39:31.577Z,39.07
2019-03-21T05:42:04.389Z,35.97
2019-03-21T05:44:41.543Z,40.60
2019-03-21T05:47:12.254Z,39.50
2019-03-21T05:49:43.072Z,39.30
2019-03-21T05:52:14.762Z,42.67
2019-03-21T05:54:45.569Z,37.40
2019-03-21T05:57:16.240Z,44.90
2019-03-21T05:59:46.953Z,40.03
2019-03-21T06:02:17.759Z,39.33
2019-03-21T06:04:48.493Z,40.23
2019-03-21T06:07:37.968Z,44.17
2019-03-21T06:10:11.978Z,38.37
2019-03-21T06:12:46.106Z,39.07
2019-03-21T06:15:24.265Z,39.20
2019-03-21T06:18:44.272Z,40.93
2019-03-21T06:21:47.693Z,38.67
2019-03-21T06:24:58.212Z,35.53
2019-03-21T06:27:32.024Z,35.70
2019-03-21T06:30:03.416Z,37.03
2019-03-21T06:32:36.924Z,34.33
2019-03-21T06:35:21.385Z,38.80
2019-03-21T06:37:53.139Z,36.03
2019-03-21T06:40:23.934Z,37.87
2019-03-21T06:42:54.854Z,37.70
2019-03-21T06:45:25.684Z,35.70
2019-03-21T06:47:56.575Z,37.90
2019-03-21T06:50:27.893Z,43.23
2019-03-21T06:52:58.623Z,37.23
2019-03-21T06:55:29.361Z,39.40
2019-03-21T06:58:00.066Z,39.23
2019-03-21T07:00:30.844Z,37.70
2019-03-21T07:03:04.607Z,36.03
2019-03-21T07:05:35.318Z,36.67
2019-03-21T07:08:06.130Z,42.97
2019-03-21T07:10:37.510Z,37.87
2019-03-21T07:13:08.457Z,45.93
2019-03-21T07:15:39.197Z,35.97
2019-03-21T07:18:10.274Z,38.80
2019-03-21T07:20:41.002Z,41.13
2019-03-21T07:23:11.724Z,39.30
2019-03-21T07:25:42.478Z,39.07
2019-03-21T07:28:13.420Z,43.87
2019-03-21T07:30:44.182Z,37.87
2019-03-21T07:33:14.873Z,40.33
2019-03-21T07:35:45.603Z,39.63
2019-03-21T07:38:16.509Z,39.63
2019-03-21T07:40:47.311Z,35.53
2019-03-21T07:43:18.252Z,42.90
2019-03-21T07:45:49.276Z,41.20
2019-03-21T07:48:19.965Z,37.90
2019-03-21T07:50:50.671Z,37.60
2019-03-21T07:53:22.209Z,43.67
2019-03-21T07:55:53.319Z,46.10
2019-03-21T07:58:24.223Z,53.70
2019-03-21T08:00:54.942Z,49.63
2019-03-21T08:03:26.117Z,45.93
2019-03-21T08:05:56.846Z,51.90
2019-03-21T08:08:27.644Z,43.00
2019-03-21T08:10:58.320Z,49.53
2019-03-21T08:13:29.125Z,45.90
2019-03-21T08:16:00.306Z,40.50
2019-03-21T08:18:31.226Z,42.57
2019-03-21T08:21:02.591Z,41.50
2019-03-21T08:23:33.447Z,40.20
2019-03-21T08:26:04.157Z,54.20
2019-03-21T08:28:35.209Z,41.87
2019-03-21T08:31:20.182Z,45.20
2019-03-21T08:33:51.068Z,43.13
2019-03-21T08:36:21.902Z,38.77
2019-03-21T08:38:53.159Z,43.80
2019-03-21T08:41:25.593Z,42.37
2019-03-21T08:43:56.302Z,44.10
2019-03-21T08:46:27.265Z,45.43
2019-03-21T08:48:58.185Z,40.03
2019-03-21T08:51:28.981Z,39.17
2019-03-21T08:53:59.846Z,35.63
2019-03-21T08:56:30.676Z,40.13
2019-03-21T08:59:01.708Z,33.60
2019-03-21T09:01:32.563Z,36.67
2019-03-21T09:04:03.354Z,38.27
2019-03-21T09:06:34.182Z,34.70
2019-03-21T09:09:07.899Z,38.73
2019-03-21T09:11:40.592Z,41.27
2019-03-21T09:14:14.613Z,32.13
2019-03-21T09:16:45.375Z,37.27
2019-03-21T09:19:16.380Z,34.87
2019-03-21T09:21:47.625Z,36.57
2019-03-21T09:24:18.337Z,34.83
2019-03-21T09:26:49.289Z,36.87
2019-03-21T09:29:20.214Z,35.37
2019-03-21T09:31:51.025Z,29.47
2019-03-21T09:34:22.057Z,32.90
2019-03-21T09:36:52.948Z,32.03
2019-03-21T09:39:24.891Z,28.70
2019-03-21T09:41:55.763Z,29.17
2019-03-21T09:44:24.861Z,32.93
2019-03-21T09:46:56.217Z,30.60
2019-03-21T09:49:27.147Z,31.60
2019-03-21T09:51:57.923Z,31.47
2019-03-21T09:54:28.642Z,29.07
2019-03-21T09:56:59.446Z,31.90
2019-03-21T09:59:30.184Z,29.33
2019-03-21T10:02:01.130Z,29.47
2019-03-21T10:04:31.831Z,33.23
2019-03-21T10:07:02.639Z,33.80
2019-03-21T10:09:33.356Z,33.50
2019-03-21T10:12:05.882Z,32.10
2019-03-21T10:14:37.153Z,32.70
2019-03-21T10:17:08.251Z,27.67
2019-03-21T10:19:39.195Z,32.40
2019-03-21T10:22:10.266Z,29.77
2019-03-21T10:24:41.297Z,32.90
2019-03-21T10:27:12.530Z,30.73
2019-03-21T10:29:43.503Z,33.47
2019-03-21T10:32:14.870Z,31.77
2019-03-21T10:34:47.299Z,29.10
2019-03-21T10:37:18.386Z,27.37
2019-03-21T10:39:49.570Z,29.97
2019-03-21T10:42:20.660Z,34.60
2019-03-21T10:44:51.788Z,28.70
2019-03-21T10:47:23.375Z,29.97
2019-03-21T10:49:54.367Z,29.10
2019-03-21T10:52:25.538Z,27.47
2019-03-21T10:54:56.754Z,26.83
2019-03-21T10:57:28.467Z,29.47
2019-03-21T11:00:01.695Z,26.70
2019-03-21T11:02:32.026Z,29.40
2019-03-21T11:05:02.966Z,27.50
2019-03-21T11:07:33.738Z,26.13
2019-03-21T11:10:04.885Z,28.67
2019-03-21T11:12:35.798Z,29.50
2019-03-21T11:15:07.128Z,27.63
2019-03-21T11:17:37.908Z,27.93
2019-03-21T11:20:08.879Z,29.93
2019-03-21T11:22:39.584Z,27.27
2019-03-21T11:25:10.582Z,27.47
2019-03-21T11:27:41.633Z,29.03
2019-03-21T11:30:16.501Z,26.13
2019-03-21T11:32:47.174Z,27.73
2019-03-21T11:35:17.922Z,28.17
2019-03-21T11:37:48.657Z,26.63
2019-03-21T11:40:19.417Z,28.40
2019-03-21T11:42:50.158Z,28.50
2019-03-21T11:45:21.082Z,26.53
2019-03-21T11:47:53.385Z,24.87
2019-03-21T11:50:24.091Z,22.93
2019-03-21T11:52:54.816Z,23.50
2019-03-21T11:55:25.586Z,25.00
2019-03-21T11:57:56.338Z,24.63
2019-03-21T12:00:27.034Z,21.10
2019-03-21T12:02:58.227Z,20.83
2019-03-21T12:05:29.033Z,21.20
2019-03-21T12:07:59.783Z,21.37
2019-03-21T12:10:30.523Z,21.70
2019-03-21T12:13:01.288Z,23.60
2019-03-21T12:15:32.128Z,25.43
2019-03-21T12:18:02.914Z,24.07
2019-03-21T12:20:37.621Z,25.40
2019-03-21T12:23:08.574Z,24.07
2019-03-21T12:25:45.920Z,27.13
2019-03-21T12:28:16.927Z,27.33
2019-03-21T12:30:48.186Z,30.60
2019-03-21T12:33:18.934Z,28.83
2019-03-21T12:35:49.778Z,29.90
2019-03-21T12:38:20.783Z,31.97
2019-03-21T12:40:51.556Z,34.30
2019-03-21T12:43:22.790Z,36.53
2019-03-21T12:45:53.562Z,34.20
2019-03-21T12:48:24.410Z,36.13
2019-03-21T12:50:55.294Z,34.30
2019-03-21T12:53:26.038Z,34.90
2019-03-21T12:55:56.753Z,37.57
2019-03-21T12:58:27.485Z,31.30
2019-03-21T13:00:58.245Z,33.70
2019-03-21T13:03:29.075Z,36.70
2019-03-21T13:05:59.812Z,35.13
2019-03-21T13:08:34.026Z,26.80
2019-03-21T13:11:03.178Z,34.13
2019-03-21T13:13:33.908Z,32.17
2019-03-21T13:16:04.846Z,33.13
2019-03-21T13:18:35.591Z,31.57
2019-03-21T13:21:06.451Z,33.60
2019-03-21T13:23:37.214Z,33.13
2019-03-21T13:26:07.951Z,36.60
2019-03-21T13:28:38.676Z,35.40
2019-03-21T13:31:09.412Z,34.00
2019-03-21T13:33:40.176Z,33.87
2019-03-21T13:36:10.891Z,32.67
2019-03-21T13:38:41.631Z,32.50
2019-03-21T13:41:12.350Z,36.67
2019-03-21T13:43:43.315Z,35.67
2019-03-21T13:46:14.039Z,34.63
2019-03-21T13:48:44.769Z,36.07
2019-03-21T13:51:15.481Z,34.47
2019-03-21T13:53:46.670Z,34.10
2019-03-21T13:56:19.695Z,35.85
2019-03-21T13:58:50.897Z,34.83
2019-03-21T14:01:21.609Z,33.57
2019-03-21T14:03:52.394Z,32.97
2019-03-21T14:06:23.078Z,32.43
2019-03-21T14:08:53.813Z,36.27
2019-03-21T14:11:24.543Z,34.47
2019-03-21T14:13:55.534Z,33.20
2019-03-21T14:16:28.720Z,34.33
2019-03-21T14:18:59.423Z,34.53
2019-03-21T14:21:30.111Z,36.27
2019-03-21T14:24:00.929Z,35.50
2019-03-21T14:26:31.666Z,33.70
2019-03-21T14:29:12.175Z,35.10
2019-03-21T14:31:34.954Z,38.33
2019-03-21T14:34:05.677Z,33.90
2019-03-21T14:36:36.528Z,34.67
2019-03-21T14:39:08.643Z,38.70
2019-03-21T14:41:39.907Z,36.50
2019-03-21T14:44:10.653Z,40.17
2019-03-21T14:46:41.420Z,39.97
2019-03-21T14:49:12.278Z,35.63
2019-03-21T14:51:43.013Z,32.80
2019-03-21T14:54:13.760Z,37.93
2019-03-21T14:56:44.578Z,36.83
2019-03-21T14:59:15.554Z,36.40
2019-03-21T15:01:46.309Z,35.17
2019-03-21T15:04:17.241Z,36.27
2019-03-21T15:06:47.996Z,35.83
2019-03-21T15:09:18.733Z,39.23
2019-03-21T15:11:49.502Z,35.33
2019-03-21T15:14:20.359Z,29.33
2019-03-21T15:16:51.079Z,30.07
2019-03-21T15:19:21.908Z,32.27
2019-03-21T15:21:52.677Z,33.87
2019-03-21T15:24:23.646Z,32.53
2019-03-21T15:26:54.355Z,29.50
2019-03-21T15:29:25.230Z,29.93
2019-03-21T15:31:56.119Z,31.50
2019-03-21T15:34:27.622Z,32.53
2019-03-21T15:36:58.440Z,31.63
2019-03-21T15:39:29.209Z,31.17
2019-03-21T15:41:59.952Z,30.73
2019-03-21T15:44:30.939Z,52.67
2019-03-21T15:47:01.759Z,42.17
2019-03-21T15:49:32.868Z,33.90
2019-03-21T15:52:03.608Z,32.00
2019-03-21T15:54:34.580Z,33.23
2019-03-21T15:57:05.758Z,33.73
2019-03-21T15:59:36.523Z,36.00
2019-03-21T16:02:07.302Z,33.67
2019-03-21T16:04:38.038Z,37.63
2019-03-21T16:07:08.952Z,32.50
2019-03-21T16:09:39.724Z,30.23
2019-03-21T16:12:11.185Z,37.87
2019-03-21T16:14:42.240Z,33.83
2019-03-21T16:17:13.041Z,31.60
2019-03-21T16:19:43.758Z,36.03
2019-03-21T16:22:18.098Z,32.60
2019-03-21T16:24:51.957Z,35.53
2019-03-21T16:27:24.890Z,32.50
2019-03-21T16:29:55.616Z,36.27
2019-03-21T16:32:26.392Z,33.33
2019-03-21T16:34:57.152Z,32.70
2019-03-21T16:37:27.902Z,35.23
2019-03-21T16:39:58.640Z,34.20
2019-03-21T16:42:31.802Z,37.37
2019-03-21T16:45:02.523Z,38.20
2019-03-21T16:47:33.336Z,34.93
2019-03-21T16:50:04.596Z,32.87
2019-03-21T16:52:36.192Z,37.20
2019-03-21T16:55:08.812Z,34.57
2019-03-21T16:57:39.954Z,36.47
2019-03-21T17:00:11.260Z,36.43
2019-03-21T17:02:42.005Z,36.53
2019-03-21T17:05:12.917Z,35.80
2019-03-21T17:07:43.853Z,32.83
2019-03-21T17:10:16.523Z,38.77
2019-03-21T17:12:47.412Z,32.80
2019-03-21T17:15:18.291Z,33.37
2019-03-21T17:17:49.043Z,34.00
2019-03-21T17:20:20.311Z,32.47
2019-03-21T17:22:51.232Z,33.63
2019-03-21T17:25:21.943Z,36.47
2019-03-21T17:27:54.784Z,35.97
2019-03-21T17:30:25.508Z,35.60
2019-03-21T17:32:56.562Z,34.53
2019-03-21T17:35:27.695Z,34.07
2019-03-21T17:37:59.265Z,37.60
2019-03-21T17:40:32.263Z,36.03
2019-03-21T17:43:03.201Z,34.10
2019-03-21T17:45:33.963Z,32.90
2019-03-21T17:48:04.871Z,30.00
2019-03-21T17:50:35.627Z,34.00
2019-03-21T17:53:06.506Z,33.97
2019-03-21T17:55:37.255Z,35.77
2019-03-21T17:58:08.009Z,35.90
2019-03-21T18:00:39.070Z,35.50
2019-03-21T18:03:10.174Z,37.00
2019-03-21T18:05:40.956Z,34.93
2019-03-21T18:08:11.882Z,37.77
2019-03-21T18:10:42.704Z,36.87
2019-03-21T18:13:13.943Z,55.50
2019-03-21T18:15:45.237Z,37.27
2019-03-21T18:18:16.020Z,39.77
2019-03-21T18:20:46.998Z,38.57
2019-03-21T18:23:18.207Z,39.47
2019-03-21T18:25:48.941Z,36.07
2019-03-21T18:28:19.717Z,35.43
2019-03-21T18:30:50.750Z,37.20
2019-03-21T18:33:21.528Z,38.80
2019-03-21T18:35:52.374Z,41.03
2019-03-21T18:38:23.267Z,40.60
2019-03-21T18:40:54.142Z,36.70
2019-03-21T18:43:24.935Z,39.80
2019-03-21T18:45:55.689Z,41.17
2019-03-21T18:48:26.474Z,40.70
2019-03-21T18:50:57.274Z,39.60
2019-03-21T18:53:28.483Z,42.00
2019-03-21T18:55:59.216Z,40.93
2019-03-21T18:58:30.082Z,40.10
2019-03-21T19:01:00.905Z,49.00
2019-03-21T19:03:31.602Z,38.77
2019-03-21T19:06:02.767Z,56.70
2019-03-21T19:08:34.769Z,47.77
2019-03-21T19:11:05.864Z,44.43
2019-03-21T19:13:36.560Z,46.20
2019-03-21T19:16:07.470Z,45.80
2019-03-21T19:18:38.242Z,42.40
2019-03-21T19:21:08.976Z,41.93
2019-03-21T19:23:40.033Z,41.67
2019-03-21T19:26:10.782Z,106.00
2019-03-21T19:28:41.563Z,68.10
2019-03-21T19:31:12.314Z,81.33
2019-03-21T19:33:43.145Z,62.43
2019-03-21T19:36:13.926Z,53.83
2019-03-21T19:38:45.278Z,49.17
2019-03-21T19:41:16.067Z,60.30
2019-03-21T19:43:47.003Z,144.60
2019-03-21T19:46:17.754Z,67.90
2019-03-21T19:48:50.519Z,49.27
2019-03-21T19:51:21.183Z,135.17
2019-03-21T19:53:52.187Z,79.87
2019-03-21T19:56:23.075Z,84.97
2019-03-21T19:58:54.082Z,67.80
2019-03-21T20:01:25.100Z,65.40
2019-03-21T20:03:55.872Z,47.73
2019-03-21T20:06:29.265Z,49.77
2019-03-21T20:09:00.124Z,49.73
2019-03-21T20:11:31.074Z,77.13
2019-03-21T20:14:03.986Z,51.83
2019-03-21T20:16:34.537Z,51.20
2019-03-21T20:19:05.383Z,63.80
2019-03-21T20:21:47.298Z,58.33
2019-03-21T20:24:09.095Z,65.50
2019-03-21T20:26:40.086Z,53.70
2019-03-21T20:29:11.068Z,68.63
2019-03-21T20:31:41.820Z,94.50
2019-03-21T20:34:12.986Z,60.47
2019-03-21T20:36:46.626Z,49.17
2019-03-21T20:39:17.347Z,62.97
2019-03-21T20:41:48.431Z,79.93
2019-03-21T20:44:19.479Z,58.37
2019-03-21T20:46:50.312Z,123.80
2019-03-21T20:49:21.134Z,83.23
2019-03-21T20:51:51.965Z,55.67
2019-03-21T20:54:22.741Z,49.20
2019-03-21T20:56:53.619Z,49.83
2019-03-21T20:59:24.360Z,47.10
2019-03-21T21:02:02.757Z,47.43
2019-03-21T21:04:27.862Z,49.17
2019-03-21T21:06:58.833Z,48.27
2019-03-21T21:09:29.526Z,52.50
2019-03-21T21:12:00.689Z,47.07
2019-03-21T21:14:31.649Z,52.93
2019-03-21T21:17:02.505Z,47.83
2019-03-21T21:19:33.306Z,48.90
2019-03-21T21:22:04.198Z,53.43
2019-03-21T21:24:35.029Z,48.03
2019-03-21T21:27:05.915Z,50.10
2019-03-21T21:29:36.601Z,48.93
2019-03-21T21:32:07.584Z,53.50
2019-03-21T21:34:38.397Z,54.60
2019-03-21T21:37:09.132Z,54.67
2019-03-21T21:39:39.984Z,53.97
2019-03-21T21:42:10.786Z,65.27
2019-03-21T21:44:41.623Z,67.83
2019-03-21T21:47:12.469Z,53.67
2019-03-21T21:49:43.260Z,57.13
2019-03-21T21:52:13.988Z,52.23
2019-03-21T21:54:44.807Z,49.50
2019-03-21T21:57:15.671Z,52.33
2019-03-21T21:59:46.481Z,56.53
2019-03-21T22:02:17.328Z,52.30
2019-03-21T22:04:48.333Z,51.80
2019-03-21T22:07:19.518Z,56.07
2019-03-21T22:09:50.361Z,53.30
2019-03-21T22:12:21.246Z,56.20
2019-03-21T22:14:51.966Z,54.07
2019-03-21T22:17:22.823Z,50.27
2019-03-21T22:19:53.632Z,51.73
2019-03-21T22:22:24.426Z,52.87
2019-03-21T22:24:55.187Z,52.23
2019-03-21T22:27:25.917Z,53.57
2019-03-21T22:29:56.661Z,60.93
2019-03-21T22:32:27.392Z,58.23
2019-03-21T22:34:58.348Z,59.73
2019-03-21T22:37:29.117Z,62.67
2019-03-21T22:39:59.870Z,82.57
2019-03-21T22:42:31.310Z,86.57
2019-03-21T22:45:02.077Z,75.47
2019-03-21T22:47:32.856Z,58.23
2019-03-21T22:50:04.058Z,57.40
2019-03-21T22:52:35.072Z,54.33
2019-03-21T22:55:06.712Z,59.43
2019-03-21T22:57:38.118Z,54.60
2019-03-21T23:00:12.005Z,60.37
2019-03-21T23:02:42.868Z,64.07
2019-03-21T23:05:14.373Z,59.73
2019-03-21T23:07:45.684Z,65.30
2019-03-21T23:10:17.170Z,68.60
2019-03-21T23:12:48.419Z,57.17
2019-03-21T23:15:19.420Z,64.63
2019-03-21T23:17:50.463Z,59.43
2019-03-21T23:20:21.304Z,75.67
2019-03-21T23:22:52.516Z,68.30
2019-03-21T23:25:23.368Z,63.27
2019-03-21T23:27:54.275Z,64.90
2019-03-21T23:30:24.996Z,67.47
2019-03-21T23:32:55.831Z,61.17
2019-03-21T23:35:27.165Z,58.83
2019-03-21T23:37:58.059Z,66.87
2019-03-21T23:40:28.928Z,52.27
2019-03-21T23:42:59.683Z,57.90
2019-03-21T23:45:30.512Z,62.97
2019-03-21T23:48:02.826Z,60.47
2019-03-21T23:50:33.500Z,66.43
2019-03-21T23:53:05.217Z,54.83
2019-03-21T23:55:36.214Z,60.80
2019-03-21T23:58:08.214Z,67.70
